Time;durP1;ratioP1;P1;durP2;ratioP2;P2;SDS_P1;SDS_P2;PMS_P1;PMS_P2;Temp;Humidity;BMP_temperature;BMP_pressure;BME280_temperature;BME280_humidity;BME280_pressure;Samples;Min_cycle;Max_cycle;Signal;HPM_P1;HPM_P2
2023/07/09 00:01:13;;;;;;;6.65;2.80;;;;;;;19.81;47.66;95397.00;5126726;27;20064;-81
2023/07/09 00:03:39;;;;;;;5.15;3.35;;;;;;;19.73;48.03;95390.31;5109189;28;20040;-82
2023/07/09 00:06:07;;;;;;;8.30;3.38;;;;;;;19.70;48.13;95394.03;5126171;27;20470;-81
2023/07/09 00:08:33;;;;;;;6.35;4.28;;;;;;;19.69;49.05;95386.94;5126690;27;20408;-81
2023/07/09 00:10:59;;;;;;;5.20;3.15;;;;;;;19.66;48.87;95383.09;5125334;27;20020;-81
2023/07/09 00:13:25;;;;;;;7.22;3.33;;;;;;;19.62;49.36;95379.75;5126526;27;20458;-81
2023/07/09 00:15:52;;;;;;;11.23;3.28;;;;;;;19.58;49.93;95379.94;5108865;28;20126;-82
2023/07/09 00:18:17;;;;;;;5.85;3.33;;;;;;;19.50;49.51;95383.59;5110518;28;20051;-82
2023/07/09 00:20:43;;;;;;;6.53;2.92;;;;;;;19.16;50.22;95380.31;5109350;28;20501;-82
2023/07/09 00:23:16;;;;;;;4.18;2.75;;;;;;;18.96;50.16;95386.56;5109872;28;20401;-82
2023/07/09 00:25:44;;;;;;;4.80;3.00;;;;;;;18.68;50.90;95388.09;5125600;27;20016;-82
2023/07/09 00:28:17;;;;;;;9.38;2.97;;;;;;;18.47;51.18;95384.41;5124604;27;20027;-82
2023/07/09 00:30:44;;;;;;;5.63;2.90;;;;;;;18.34;51.27;95383.91;5114720;28;20030;-82
2023/07/09 00:33:13;;;;;;;5.40;3.00;;;;;;;18.40;51.31;95379.19;5125304;27;20024;-82
2023/07/09 00:35:40;;;;;;;5.50;2.80;;;;;;;18.37;51.06;95380.16;5126216;27;20031;-81
2023/07/09 00:38:28;;;;;;;7.30;2.72;;;;;;;18.33;50.87;95372.00;5109858;28;20402;-81
2023/07/09 00:40:59;;;;;;;7.22;2.50;;;;;;;18.37;50.84;95363.47;5114702;28;20058;-81
2023/07/09 00:43:24;;;;;;;4.80;2.78;;;;;;;18.35;50.81;95363.97;5110597;28;20023;-81
2023/07/09 00:46:11;;;;;;;3.70;2.75;;;;;;;18.35;50.81;95365.94;5125557;27;20022;-81
2023/07/09 00:48:37;;;;;;;6.25;2.67;;;;;;;18.40;50.41;95366.06;5110509;28;20031;-82
2023/07/09 00:51:10;;;;;;;4.47;2.47;;;;;;;18.39;50.50;95358.94;5109086;28;20050;-81
2023/07/09 00:53:36;;;;;;;10.35;3.22;;;;;;;18.40;50.40;95352.13;5108544;28;20035;-82
2023/07/09 00:56:09;;;;;;;3.88;3.10;;;;;;;18.44;50.29;95360.31;5108284;28;20406;-81
2023/07/09 00:58:35;;;;;;;7.93;3.05;;;;;;;18.38;50.53;95360.19;5125231;27;20350;-81
2023/07/09 01:01:05;;;;;;;4.10;2.90;;;;;;;18.40;50.25;95356.94;5110184;28;20103;-81
2023/07/09 01:03:43;;;;;;;4.97;2.65;;;;;;;18.38;50.18;95359.44;5108852;28;20030;-81
2023/07/09 01:06:09;;;;;;;4.97;2.85;;;;;;;18.40;49.92;95354.16;5110089;27;20107;-82
2023/07/09 01:08:36;;;;;;;4.15;2.90;;;;;;;18.39;50.32;95360.97;5109236;28;20471;-81
2023/07/09 01:11:02;;;;;;;5.18;2.67;;;;;;;18.41;50.07;95359.25;5108689;28;20041;-82
2023/07/09 01:13:29;;;;;;;7.18;2.83;;;;;;;18.44;49.96;95360.31;5108790;27;20023;-81
2023/07/09 01:15:55;;;;;;;4.13;2.70;;;;;;;18.44;50.19;95357.53;5106645;28;20044;-82
2023/07/09 01:18:21;;;;;;;5.10;2.63;;;;;;;18.48;49.94;95353.31;5125083;27;20051;-82
2023/07/09 01:20:47;;;;;;;5.75;3.10;;;;;;;18.45;50.23;95353.50;5108077;28;20062;-83
2023/07/09 01:23:12;;;;;;;5.78;2.85;;;;;;;18.45;49.98;95348.69;5113742;28;20031;-83
2023/07/09 01:25:54;;;;;;;6.60;3.08;;;;;;;18.46;50.00;95355.78;5108504;28;20243;-82
2023/07/09 01:28:20;;;;;;;9.48;2.83;;;;;;;18.45;50.13;95345.91;5125855;27;20484;-83
2023/07/09 01:30:53;;;;;;;3.53;2.38;;;;;;;18.49;49.85;95346.50;5116697;28;20031;-82
2023/07/09 01:33:18;;;;;;;;;;;;;;;18.53;49.94;95347.06;5120128;28;20035;-80
2023/07/09 01:35:44;;;;;;;5.47;2.97;;;;;;;18.54;49.69;95340.25;5116282;28;19912;-82
2023/07/09 01:38:09;;;;;;;4.28;2.53;;;;;;;18.56;49.48;95346.09;5111147;28;20027;-81
2023/07/09 01:40:35;;;;;;;5.25;2.60;;;;;;;18.47;49.64;95337.88;5126092;27;20088;-83
2023/07/09 01:43:06;;;;;;;7.53;2.80;;;;;;;18.55;49.69;95343.81;5111285;27;20039;-82
2023/07/09 01:45:32;;;;;;;4.55;2.65;;;;;;;18.54;49.75;95356.97;5127872;27;20031;-82
2023/07/09 01:47:58;;;;;;;9.55;3.30;;;;;;;18.49;49.44;95345.72;5106306;28;20489;-82
2023/07/09 01:50:24;;;;;;;6.35;3.05;;;;;;;18.55;49.74;95355.72;5108882;28;20096;-82
2023/07/09 01:52:50;;;;;;;5.28;2.97;;;;;;;18.52;49.82;95358.66;5107357;28;20031;-82
2023/07/09 01:55:16;;;;;;;3.63;2.40;;;;;;;18.51;49.64;95362.72;5123618;27;20015;-82
2023/07/09 01:57:42;;;;;;;4.18;2.65;;;;;;;18.52;50.12;95361.47;5109006;28;20023;-81
2023/07/09 02:00:11;;;;;;;3.03;2.72;;;;;;;18.51;49.76;95354.34;5106865;28;20023;-81
2023/07/09 02:02:38;;;;;;;4.90;2.72;;;;;;;18.52;49.77;95364.25;5124598;27;20027;-81
2023/07/09 02:05:05;;;;;;;6.45;2.80;;;;;;;18.55;49.83;95368.88;5122471;27;20031;-82
2023/07/09 02:07:30;;;;;;;4.55;2.78;;;;;;;18.56;49.61;95365.59;5109090;28;20107;-82
2023/07/09 02:09:56;;;;;;;3.75;2.80;;;;;;;18.58;49.41;95370.69;5122641;27;20169;-81
2023/07/09 02:12:21;;;;;;;6.07;2.50;;;;;;;18.61;49.76;95368.97;5107901;27;20027;-82
2023/07/09 02:14:47;;;;;;;6.97;2.70;;;;;;;18.62;49.74;95365.69;5123533;27;20044;-82
2023/07/09 02:17:13;;;;;;;7.57;3.05;;;;;;;18.62;49.52;95367.72;5110018;28;20027;-82
2023/07/09 02:19:39;;;;;;;9.60;3.00;;;;;;;18.64;49.92;95362.41;5125184;27;20027;-82
2023/07/09 02:22:05;;;;;;;5.63;3.30;;;;;;;18.66;51.04;95363.50;5106392;28;20776;-82
2023/07/09 02:24:31;;;;;;;4.93;3.00;;;;;;;18.64;51.79;95371.56;5108824;28;20092;-82
2023/07/09 02:26:58;;;;;;;5.47;3.00;;;;;;;18.57;51.93;95369.13;5106732;28;20027;-81
2023/07/09 02:29:24;;;;;;;4.72;2.95;;;;;;;18.56;52.45;95375.97;5107809;28;20050;-82
2023/07/09 02:31:51;;;;;;;4.97;3.03;;;;;;;18.57;52.75;95377.50;5106776;28;20482;-82
2023/07/09 02:34:18;;;;;;;5.10;2.92;;;;;;;18.47;52.87;95367.72;5106524;28;20126;-82
2023/07/09 02:36:43;;;;;;;4.65;3.50;;;;;;;18.45;52.96;95370.19;5108526;28;20517;-83
2023/07/09 02:39:13;;;;;;;7.85;3.35;;;;;;;18.40;52.99;95381.97;5107136;28;20062;-82
2023/07/09 02:41:42;;;;;;;7.03;3.22;;;;;;;18.36;53.33;95375.84;5107657;28;20100;-83
2023/07/09 02:44:08;;;;;;;7.95;3.30;;;;;;;18.36;53.12;95384.22;5106301;28;20038;-81
2023/07/09 02:46:34;;;;;;;7.47;3.20;;;;;;;18.34;52.97;95392.25;5124274;27;20478;-82
2023/07/09 02:49:00;;;;;;;6.32;3.30;;;;;;;18.31;53.64;95388.41;5111728;28;20020;-82
2023/07/09 02:51:26;;;;;;;6.05;3.55;;;;;;;18.29;53.97;95402.81;5124104;27;20027;-82
2023/07/09 02:53:55;;;;;;;7.22;3.53;;;;;;;18.27;54.33;95396.16;5123581;27;20029;-82
2023/07/09 02:56:21;;;;;;;5.88;3.60;;;;;;;18.23;54.62;95399.13;5122372;27;20516;-82
2023/07/09 02:58:46;;;;;;;6.15;3.50;;;;;;;18.15;54.92;95406.31;5108488;28;20047;-83
2023/07/09 03:01:12;;;;;;;6.60;3.45;;;;;;;18.15;54.44;95413.88;5105961;28;20047;-83
2023/07/09 03:03:38;;;;;;;5.18;3.78;;;;;;;18.08;54.74;95411.47;5108551;28;20561;-82
2023/07/09 03:06:03;;;;;;;7.93;3.90;;;;;;;18.07;54.45;95421.06;5104626;28;20023;-83
2023/07/09 03:08:29;;;;;;;7.07;3.55;;;;;;;18.02;54.63;95419.72;5108405;28;20027;-82
2023/07/09 03:10:54;;;;;;;7.63;3.53;;;;;;;17.98;54.30;95416.31;5111833;28;20031;-82
2023/07/09 03:13:19;;;;;;;6.25;3.60;;;;;;;17.86;54.51;95415.31;5108054;28;20016;-82
2023/07/09 03:15:55;;;;;;;6.82;3.95;;;;;;;17.88;54.30;95420.41;5107216;28;20055;-82
2023/07/09 03:18:20;;;;;;;7.30;3.80;;;;;;;17.83;54.62;95419.03;5106539;28;20053;-81
2023/07/09 03:20:46;;;;;;;6.03;4.25;;;;;;;17.83;54.26;95423.81;5108100;28;20023;-82
2023/07/09 03:23:11;;;;;;;6.20;4.07;;;;;;;17.80;54.67;95427.56;5105668;28;20065;-82
2023/07/09 03:25:43;;;;;;;8.65;3.78;;;;;;;17.73;54.65;95415.56;5106948;28;20023;-81
2023/07/09 03:28:08;;;;;;;9.40;3.50;;;;;;;17.68;54.54;95426.53;5106142;28;20030;-82
2023/07/09 03:30:34;;;;;;;7.68;4.78;;;;;;;17.80;54.25;95416.44;5106617;28;20027;-81
2023/07/09 03:33:00;;;;;;;6.20;3.92;;;;;;;17.82;54.25;95422.28;5106976;28;20027;-82
2023/07/09 03:35:26;;;;;;;8.88;3.83;;;;;;;17.79;54.25;95424.03;5126584;27;20471;-82
2023/07/09 03:37:51;;;;;;;5.70;3.78;;;;;;;17.67;54.38;95431.31;5112062;28;20028;-82
2023/07/09 03:40:23;;;;;;;10.95;4.22;;;;;;;17.63;54.74;95429.94;5125819;27;20091;-82
2023/07/09 03:42:49;;;;;;;5.47;3.78;;;;;;;17.62;54.89;95425.63;5112083;28;20513;-82
2023/07/09 03:45:14;;;;;;;6.15;4.00;;;;;;;17.61;55.11;95421.31;5125351;27;20061;-82
2023/07/09 03:47:40;;;;;;;5.38;4.13;;;;;;;17.57;55.29;95432.59;5112633;28;20028;-82
2023/07/09 03:50:09;;;;;;;7.63;4.38;;;;;;;17.59;55.05;95435.66;5125240;27;20020;-82
2023/07/09 03:52:35;;;;;;;5.90;4.18;;;;;;;17.58;55.42;95431.34;5131603;27;20023;-82
2023/07/09 03:55:02;;;;;;;6.60;3.90;;;;;;;17.61;55.35;95429.66;5128641;27;20556;-82
2023/07/09 03:57:27;;;;;;;6.63;3.97;;;;;;;17.62;55.37;95431.97;5125741;27;20031;-82
2023/07/09 03:59:53;;;;;;;8.50;3.72;;;;;;;17.64;55.47;95432.25;5111491;28;20031;-83
2023/07/09 04:02:18;;;;;;;6.28;3.88;;;;;;;17.62;55.47;95425.63;5110453;28;20027;-81
2023/07/09 04:04:44;;;;;;;7.70;3.63;;;;;;;17.67;55.26;95436.13;5115197;28;20058;-82
2023/07/09 04:07:09;;;;;;;6.72;3.53;;;;;;;17.69;55.44;95436.41;5124920;27;20401;-82
2023/07/09 04:09:35;;;;;;;5.22;3.88;;;;;;;17.76;55.35;95445.19;5111677;28;20382;-82
2023/07/09 04:12:01;;;;;;;5.80;3.83;;;;;;;17.78;55.32;95433.59;5110072;28;20408;-82
2023/07/09 04:14:27;;;;;;;7.65;4.18;;;;;;;17.84;55.08;95442.06;5110999;28;20548;-82
2023/07/09 04:16:52;;;;;;;6.75;3.85;;;;;;;17.85;55.04;95440.84;5111738;28;20051;-83
2023/07/09 04:19:18;;;;;;;5.82;3.88;;;;;;;17.86;54.96;95442.38;5109761;28;20482;-82
2023/07/09 04:21:43;;;;;;;10.35;4.57;;;;;;;17.91;55.10;95444.50;5111549;28;20035;-82
2023/07/09 04:24:09;;;;;;;8.23;4.60;;;;;;;17.92;55.08;95446.81;5108921;28;20054;-83
2023/07/09 04:26:35;;;;;;;10.18;4.35;;;;;;;17.95;55.34;95451.44;5111446;27;20060;-82
2023/07/09 04:29:00;;;;;;;6.05;3.65;;;;;;;17.98;55.47;95442.13;5109258;28;20414;-82
2023/07/09 04:31:26;;;;;;;8.55;3.90;;;;;;;18.03;54.90;95449.06;5110758;28;20024;-83
2023/07/09 04:33:52;;;;;;;5.70;3.70;;;;;;;18.07;54.81;95452.44;5109380;28;20020;-82
2023/07/09 04:36:18;;;;;;;9.32;3.60;;;;;;;18.10;54.61;95451.47;5109732;28;20486;-83
2023/07/09 04:38:43;;;;;;;8.63;4.35;;;;;;;18.12;54.53;95457.34;5110664;28;20030;-83
2023/07/09 04:41:09;;;;;;;6.80;3.60;;;;;;;18.15;54.41;95464.75;5108786;28;20016;-83
2023/07/09 04:43:34;;;;;;;7.80;3.85;;;;;;;18.21;54.32;95462.84;5126427;27;20107;-82
2023/07/09 04:45:59;;;;;;;6.32;3.80;;;;;;;18.25;55.18;95457.88;5107917;28;20168;-82
2023/07/09 04:48:25;;;;;;;7.65;3.90;;;;;;;18.31;55.31;95461.53;5126825;27;20027;-82
2023/07/09 04:50:51;;;;;;;5.38;3.50;;;;;;;18.36;55.32;95453.78;5124723;27;20482;-83
2023/07/09 04:53:17;;;;;;;7.00;3.72;;;;;;;18.39;55.28;95456.38;5108786;28;20379;-83
2023/07/09 04:55:42;;;;;;;9.73;3.90;;;;;;;18.44;55.12;95449.38;5126299;27;20119;-82
2023/07/09 04:58:07;;;;;;;5.93;4.28;;;;;;;18.47;55.36;95454.78;5133042;27;20102;-83
2023/07/09 05:00:33;;;;;;;10.32;3.92;;;;;;;18.53;55.63;95457.66;5110684;28;20516;-83
2023/07/09 05:02:58;;;;;;;4.93;3.45;;;;;;;18.58;54.85;95460.56;5108609;28;20068;-83
2023/07/09 05:05:24;;;;;;;7.70;3.70;;;;;;;18.64;54.47;95455.09;5110213;28;20027;-83
2023/07/09 05:07:50;;;;;;;5.32;3.63;;;;;;;18.80;53.22;95454.66;5108470;28;20026;-84
2023/07/09 05:10:16;;;;;;;8.15;3.92;;;;;;;18.84;53.49;95463.59;5110321;28;20429;-81
2023/07/09 05:12:50;;;;;;;9.75;4.13;;;;;;;18.90;53.17;95465.72;5108387;28;20111;-81
2023/07/09 05:15:15;;;;;;;7.18;4.00;;;;;;;19.02;52.52;95465.44;5109326;27;20100;-82
2023/07/09 05:17:41;;;;;;;10.20;4.07;;;;;;;19.11;52.51;95464.59;5109546;28;20031;-82
2023/07/09 05:20:07;;;;;;;7.00;3.35;;;;;;;19.20;52.42;95463.69;5108137;28;20102;-83
2023/07/09 05:22:32;;;;;;;6.65;3.40;;;;;;;19.37;52.34;95461.97;5109957;27;20033;-82
2023/07/09 05:24:57;;;;;;;6.32;3.63;;;;;;;19.40;52.45;95476.97;5107758;28;20024;-82
2023/07/09 05:27:23;;;;;;;6.22;3.80;;;;;;;19.51;52.73;95469.56;5109781;28;20128;-83
2023/07/09 05:29:48;;;;;;;6.30;3.83;;;;;;;19.62;52.38;95475.34;5108626;28;20023;-82
2023/07/09 05:32:14;;;;;;;6.45;3.25;;;;;;;19.66;51.94;95468.78;5110554;28;20019;-82
2023/07/09 05:34:39;;;;;;;5.78;3.72;;;;;;;19.70;52.03;95464.53;5108681;27;20422;-82
2023/07/09 05:37:06;;;;;;;9.07;5.13;;;;;;;19.84;52.12;95472.13;5109692;28;20505;-81
2023/07/09 05:39:31;;;;;;;7.43;3.85;;;;;;;19.91;51.83;95459.03;5109582;28;20046;-81
2023/07/09 05:41:57;;;;;;;6.43;3.47;;;;;;;19.95;52.05;95460.31;5108995;27;20612;-81
2023/07/09 05:44:22;;;;;;;7.53;4.00;;;;;;;20.04;51.55;95467.81;5125357;27;20106;-81
2023/07/09 05:46:47;;;;;;;8.40;3.78;;;;;;;20.03;51.46;95461.47;5123741;27;20032;-82
2023/07/09 05:49:13;;;;;;;7.53;3.63;;;;;;;20.11;51.31;95475.78;5110870;28;20027;-81
2023/07/09 05:51:38;;;;;;;5.15;4.07;;;;;;;20.16;50.90;95469.50;5112226;28;20100;-82
2023/07/09 05:54:04;;;;;;;5.38;3.67;;;;;;;20.23;49.95;95469.06;5110114;28;20016;-82
2023/07/09 05:56:30;;;;;;;5.30;3.30;;;;;;;20.29;49.38;95469.16;5107924;27;20485;-82
2023/07/09 05:58:56;;;;;;;7.28;4.07;;;;;;;20.39;48.89;95464.97;5109584;28;20493;-82
2023/07/09 06:01:22;;;;;;;12.20;3.58;;;;;;;20.37;48.98;95473.09;5115467;28;20120;-82
2023/07/09 06:03:48;;;;;;;9.50;4.07;;;;;;;20.39;49.35;95470.56;5109629;28;20050;-82
2023/07/09 06:06:14;;;;;;;9.65;4.55;;;;;;;20.46;49.50;95464.56;5125097;27;20294;-82
2023/07/09 06:08:40;;;;;;;4.88;3.35;;;;;;;20.58;48.83;95462.69;5107985;28;20020;-82
2023/07/09 06:11:07;;;;;;;5.97;3.38;;;;;;;20.63;49.29;95461.97;5109129;28;20031;-82
2023/07/09 06:13:33;;;;;;;5.47;3.70;;;;;;;20.63;49.02;95467.56;5107736;28;20025;-82
2023/07/09 06:15:59;;;;;;;6.93;4.10;;;;;;;20.66;49.54;95464.56;5108488;28;20074;-82
2023/07/09 06:18:28;;;;;;;6.13;3.63;;;;;;;20.72;49.06;95463.88;5108125;28;20023;-82
2023/07/09 06:20:56;;;;;;;7.20;3.72;;;;;;;20.78;49.00;95459.88;5107213;28;20110;-82
2023/07/09 06:23:22;;;;;;;5.72;3.42;;;;;;;20.86;48.63;95457.41;5108275;28;20024;-82
2023/07/09 06:25:48;;;;;;;8.90;3.83;;;;;;;20.95;48.44;95457.25;5106544;28;20038;-82
2023/07/09 06:28:20;;;;;;;7.85;3.78;;;;;;;20.92;47.99;95459.00;5124112;27;20020;-82
2023/07/09 06:30:46;;;;;;;5.20;3.15;;;;;;;21.03;48.38;95455.53;5105958;28;20024;-82
2023/07/09 06:33:12;;;;;;;5.13;3.42;;;;;;;21.05;48.44;95449.47;5108346;28;20088;-81
2023/07/09 06:35:39;;;;;;;5.60;3.20;;;;;;;21.13;47.23;95468.09;5107544;28;20026;-82
2023/07/09 06:38:05;;;;;;;6.20;3.63;;;;;;;21.14;47.50;95454.88;5108761;28;20442;-82
2023/07/09 06:40:30;;;;;;;4.55;3.28;;;;;;;21.21;47.47;95452.41;5106822;28;20030;-81
2023/07/09 06:42:57;;;;;;;9.27;3.53;;;;;;;21.31;47.45;95460.66;5126461;27;20054;-82
2023/07/09 06:45:23;;;;;;;6.60;3.50;;;;;;;21.39;46.76;95456.94;5109820;28;20020;-82
2023/07/09 06:47:49;;;;;;;5.25;3.20;;;;;;;21.47;46.23;95460.03;5123140;27;20036;-82
2023/07/09 06:50:14;;;;;;;5.13;3.20;;;;;;;21.48;46.72;95462.34;5108153;28;20059;-82
2023/07/09 06:52:40;;;;;;;7.32;3.30;;;;;;;21.55;46.47;95454.75;5106674;28;20039;-82
2023/07/09 06:55:05;;;;;;;5.55;3.28;;;;;;;21.58;46.83;95448.94;5123988;27;20030;-81
2023/07/09 06:57:31;;;;;;;5.90;3.47;;;;;;;21.69;45.52;95451.81;5106207;28;20035;-82
2023/07/09 06:59:56;;;;;;;9.13;3.28;;;;;;;21.76;45.30;95456.19;5123737;27;20026;-82
2023/07/09 07:02:22;;;;;;;5.35;3.40;;;;;;;21.80;45.48;95455.97;5107163;28;20027;-82
2023/07/09 07:04:47;;;;;;;7.40;3.58;;;;;;;21.84;45.51;95451.66;5108686;28;20075;-81
2023/07/09 07:07:12;;;;;;;3.47;2.80;;;;;;;21.96;45.21;95458.88;5113336;28;20084;-81
2023/07/09 07:09:38;;;;;;;5.88;3.20;;;;;;;21.94;44.54;95453.00;5106325;28;20024;-81
2023/07/09 07:12:03;;;;;;;6.90;3.42;;;;;;;21.98;44.06;95455.56;5107962;28;20087;-80
2023/07/09 07:14:29;;;;;;;9.05;3.80;;;;;;;22.01;43.95;95454.56;5105814;28;20509;-81
2023/07/09 07:16:56;;;;;;;5.40;3.42;;;;;;;22.09;44.06;95447.22;5107748;28;20123;-81
2023/07/09 07:19:22;;;;;;;7.35;3.10;;;;;;;22.15;44.31;95442.47;5106083;28;20020;-81
2023/07/09 07:21:47;;;;;;;5.22;3.78;;;;;;;22.19;44.45;95450.59;5107258;28;20114;-81
2023/07/09 07:24:12;;;;;;;6.72;3.30;;;;;;;22.32;43.74;95445.34;5106472;28;20091;-81
2023/07/09 07:26:38;;;;;;;6.78;3.22;;;;;;;22.38;43.52;95445.38;5106664;28;20512;-82
2023/07/09 07:29:03;;;;;;;4.78;3.33;;;;;;;22.41;43.61;95447.16;5107072;28;20026;-82
2023/07/09 07:31:29;;;;;;;5.22;2.88;;;;;;;22.48;42.92;95446.66;5105795;28;20489;-82
2023/07/09 07:33:54;;;;;;;5.43;3.58;;;;;;;22.50;43.17;95428.09;5107127;28;20031;-81
2023/07/09 07:36:19;;;;;;;5.25;3.15;;;;;;;22.62;42.66;95437.31;5107102;28;20099;-81
2023/07/09 07:38:45;;;;;;;5.45;3.65;;;;;;;22.75;42.73;95437.59;5108327;28;20043;-82
2023/07/09 07:41:10;;;;;;;4.22;3.00;;;;;;;22.77;41.66;95426.66;5106010;28;20073;-82
2023/07/09 07:43:36;;;;;;;3.88;2.80;;;;;;;22.80;41.21;95431.22;5106917;28;20118;-82
2023/07/09 07:46:02;;;;;;;4.50;3.03;;;;;;;22.89;41.80;95430.28;5106267;28;20177;-81
2023/07/09 07:48:27;;;;;;;6.13;3.65;;;;;;;23.02;41.90;95430.53;5105953;28;20023;-82
2023/07/09 07:51:01;;;;;;;4.40;3.13;;;;;;;23.12;41.68;95442.28;5106876;28;20060;-81
2023/07/09 07:53:29;;;;;;;5.13;3.55;;;;;;;23.17;41.24;95430.31;5106646;28;20023;-81
2023/07/09 07:55:56;;;;;;;6.25;3.17;;;;;;;23.22;40.90;95426.72;5108018;28;20039;-81
2023/07/09 07:58:21;;;;;;;5.25;3.45;;;;;;;23.32;41.01;95419.59;5105469;28;20106;-82
2023/07/09 08:00:47;;;;;;;7.13;3.60;;;;;;;23.37;41.45;95417.31;5122202;28;20782;-81
2023/07/09 08:03:12;;;;;;;4.95;3.67;;;;;;;23.45;41.26;95419.09;5105675;28;20027;-82
2023/07/09 08:05:38;;;;;;;4.60;3.50;;;;;;;23.50;40.81;95415.50;5121772;28;20481;-82
2023/07/09 08:08:03;;;;;;;5.07;4.10;;;;;;;23.58;40.99;95410.16;5106766;28;20052;-82
2023/07/09 08:10:29;;;;;;;6.57;3.70;;;;;;;23.74;41.28;95420.66;5112102;28;20032;-82
2023/07/09 08:12:56;;;;;;;5.97;3.55;;;;;;;23.78;41.28;95423.94;5107121;28;20020;-82
2023/07/09 08:15:23;;;;;;;9.90;4.18;;;;;;;23.89;40.11;95417.53;5104689;28;20088;-82
2023/07/09 08:17:48;;;;;;;7.03;3.50;;;;;;;24.02;39.17;95422.59;5106339;28;20031;-82
2023/07/09 08:20:13;;;;;;;7.75;3.30;;;;;;;24.01;39.72;95416.22;5122680;27;20046;-83
2023/07/09 08:22:39;;;;;;;5.72;3.72;;;;;;;24.06;40.47;95414.69;5109734;28;20020;-82
2023/07/09 08:25:05;;;;;;;5.68;3.30;;;;;;;24.15;39.75;95413.66;5110020;28;20022;-82
2023/07/09 08:27:30;;;;;;;6.45;3.38;;;;;;;24.22;40.07;95405.44;5125344;27;20135;-82
2023/07/09 08:29:55;;;;;;;6.82;3.60;;;;;;;24.38;39.77;95409.50;5115461;28;20030;-82
2023/07/09 08:32:21;;;;;;;6.50;3.47;;;;;;;24.43;39.16;95417.16;5109476;28;20101;-82
2023/07/09 08:34:46;;;;;;;7.40;3.80;;;;;;;24.51;39.85;95408.94;5110726;28;20028;-81
2023/07/09 08:37:11;;;;;;;6.35;3.67;;;;;;;24.57;40.10;95412.50;5109461;28;20104;-83
2023/07/09 08:39:37;;;;;;;6.97;3.55;;;;;;;24.62;39.69;95409.66;5110145;28;20020;-83
2023/07/09 08:42:16;;;;;;;5.93;3.53;;;;;;;24.66;39.62;95415.00;5120449;28;20036;-81
2023/07/09 08:44:55;;;;;;;4.70;3.20;;;;;;;24.76;38.86;95407.00;5135987;27;20028;-82
2023/07/09 08:47:38;;;;;;;6.68;3.10;;;;;;;24.88;38.80;95411.28;5128802;27;20126;-83
2023/07/09 08:50:16;;;;;;;6.32;3.28;;;;;;;24.96;38.46;95417.13;5109739;28;20057;-81
2023/07/09 08:52:44;;;;;;;8.23;4.10;;;;;;;25.02;38.67;95418.63;5125797;27;20073;-83
2023/07/09 08:55:13;;;;;;;4.85;3.65;;;;;;;25.07;38.51;95403.78;5109735;28;20031;-83
2023/07/09 08:57:43;;;;;;;5.38;2.60;;;;;;;25.12;38.48;95410.69;5124864;27;20572;-83
2023/07/09 09:00:22;;;;;;;6.25;3.88;;;;;;;25.29;37.40;95416.16;5125469;27;20039;-83
2023/07/09 09:02:56;;;;;;;7.53;3.35;;;;;;;25.36;37.06;95409.97;5106891;28;20020;-82
2023/07/09 09:05:22;;;;;;;4.80;3.88;;;;;;;25.54;37.33;95411.34;5124870;27;20505;-81
2023/07/09 09:07:51;;;;;;;4.80;3.08;;;;;;;25.58;37.46;95414.66;5108632;28;20103;-82
2023/07/09 09:10:43;;;;;;;5.60;3.45;;;;;;;25.67;37.07;95417.88;5108758;28;20028;-83
2023/07/09 09:13:16;;;;;;;3.88;3.25;;;;;;;25.82;36.52;95413.94;5095031;28;20035;-83
2023/07/09 09:15:44;;;;;;;4.80;3.08;;;;;;;25.93;36.58;95414.59;5090633;28;20052;-83
2023/07/09 09:18:39;;;;;;;4.85;2.80;;;;;;;26.02;36.21;95427.56;5089759;28;20520;-83
2023/07/09 09:21:17;;;;;;;5.93;3.97;;;;;;;26.15;36.41;95407.19;5106697;28;20039;-82
2023/07/09 09:23:48;;;;;;;8.60;4.45;;;;;;;26.28;35.87;95417.81;5110446;28;20062;-82
2023/07/09 09:26:34;;;;;;;7.45;3.70;;;;;;;26.41;35.04;95412.31;5090082;28;20028;-83
2023/07/09 09:29:00;;;;;;;7.80;4.03;;;;;;;26.50;34.83;95411.19;5088673;28;20030;-82
2023/07/09 09:31:27;;;;;;;7.35;4.07;;;;;;;26.59;35.29;95414.38;5088601;28;20035;-82
2023/07/09 09:33:53;;;;;;;5.85;4.03;;;;;;;26.73;34.42;95409.59;5105804;28;20040;-83
2023/07/09 09:36:26;;;;;;;5.28;3.63;;;;;;;26.86;34.55;95409.66;5088465;28;20035;-82
2023/07/09 09:38:51;;;;;;;;;;;;;;;26.96;33.78;95408.00;5089522;28;20031;-82
2023/07/09 09:41:21;;;;;;;5.90;3.85;;;;;;;27.05;34.00;95406.81;5087958;28;20400;-82
2023/07/09 09:43:48;;;;;;;6.97;3.60;;;;;;;27.17;33.94;95401.81;5106365;28;20568;-82
2023/07/09 09:46:24;;;;;;;8.52;4.05;;;;;;;27.25;33.51;95403.47;5104969;28;20038;-83
2023/07/09 09:48:54;;;;;;;9.00;4.07;;;;;;;27.37;33.11;95397.66;5105949;28;20492;-82
2023/07/09 09:51:19;;;;;;;6.00;3.97;;;;;;;27.53;32.93;95399.44;5123745;27;20032;-83
2023/07/09 09:53:48;;;;;;;7.10;3.65;;;;;;;27.60;32.98;95401.63;5106636;28;20020;-82
2023/07/09 09:56:20;;;;;;;6.47;3.95;;;;;;;27.71;32.66;95386.59;5107152;28;20107;-83
2023/07/09 09:58:46;;;;;;;5.30;3.65;;;;;;;27.86;32.13;95394.53;5123085;27;20019;-83
2023/07/09 10:01:15;;;;;;;6.72;4.38;;;;;;;27.95;31.91;95388.47;5108394;28;20031;-83
2023/07/09 10:03:41;;;;;;;7.70;3.40;;;;;;;28.00;31.86;95387.59;5105691;28;20437;-83
2023/07/09 10:06:23;;;;;;;6.15;3.20;;;;;;;28.05;31.84;95381.09;5108409;28;20106;-82
2023/07/09 10:09:04;;;;;;;8.60;3.92;;;;;;;28.18;31.56;95389.56;5107086;28;20027;-83
2023/07/09 10:11:46;;;;;;;5.68;3.90;;;;;;;28.27;31.25;95386.31;5107409;28;20040;-81
2023/07/09 10:14:34;;;;;;;5.10;3.23;;;;;;;28.43;31.10;95392.19;5109954;28;20522;-83
2023/07/09 10:17:11;;;;;;;3.80;2.80;;;;;;;28.50;30.88;95377.38;5112958;28;20304;-82
2023/07/09 10:20:03;;;;;;;5.22;2.75;;;;;;;28.70;30.44;95384.44;5108609;28;20043;-82
2023/07/09 10:22:45;;;;;;;5.88;4.25;;;;;;;28.87;30.33;95375.56;5104425;28;20047;-82
2023/07/09 10:25:18;;;;;;;4.93;3.10;;;;;;;28.97;29.81;95373.84;5108195;28;20038;-82
2023/07/09 10:27:53;;;;;;;6.20;3.33;;;;;;;29.09;29.79;95373.03;5108114;28;20019;-82
2023/07/09 10:30:30;;;;;;;5.10;3.60;;;;;;;29.28;29.76;95383.38;5107877;28;20067;-82
2023/07/09 10:33:09;;;;;;;4.65;2.88;;;;;;;29.25;28.96;95376.00;5123492;27;20031;-82
2023/07/09 10:35:38;;;;;;;3.83;3.22;;;;;;;29.31;29.41;95374.56;5124104;27;20451;-82
2023/07/09 10:38:26;;;;;;;5.30;3.30;;;;;;;29.45;28.89;95375.25;5106365;28;20032;-82
2023/07/09 10:40:55;;;;;;;3.53;2.70;;;;;;;29.58;28.02;95363.88;5107913;28;20505;-83
2023/07/09 10:43:35;;;;;;;5.95;3.50;;;;;;;29.69;28.68;95365.66;5105350;28;20027;-84
2023/07/09 10:46:05;;;;;;;5.47;2.95;;;;;;;29.85;28.06;95366.53;5107528;28;20024;-82
2023/07/09 10:48:40;;;;;;;4.35;3.05;;;;;;;29.94;27.64;95368.88;5106286;28;20024;-81
2023/07/09 10:51:16;;;;;;;4.57;3.38;;;;;;;29.95;27.89;95358.28;5106823;28;20042;-81
2023/07/09 10:53:49;;;;;;;4.35;2.50;;;;;;;29.99;27.67;95353.00;5105768;28;20023;-82
2023/07/09 10:56:17;;;;;;;4.47;2.88;;;;;;;30.06;27.54;95364.41;5122265;27;20028;-83
2023/07/09 10:58:53;;;;;;;6.40;2.88;;;;;;;30.19;27.97;95363.56;5122819;27;20031;-82
2023/07/09 11:01:25;;;;;;;5.63;3.00;;;;;;;30.23;26.37;95343.38;5105642;28;20077;-82
2023/07/09 11:03:54;;;;;;;3.03;2.53;;;;;;;30.31;26.71;95361.94;5122557;27;20092;-81
2023/07/09 11:06:22;;;;;;;4.93;3.35;;;;;;;30.38;26.77;95364.06;5122978;27;20131;-81
2023/07/09 11:08:52;;;;;;;4.18;2.70;;;;;;;30.39;26.69;95356.28;5127892;27;20032;-82
2023/07/09 11:11:44;;;;;;;4.60;2.78;;;;;;;30.49;26.99;95354.47;5122994;27;20497;-81
2023/07/09 11:14:27;;;;;;;4.95;3.05;;;;;;;30.58;27.04;95361.69;5106585;28;20051;-83
2023/07/09 11:16:55;;;;;;;5.18;2.88;;;;;;;30.66;26.88;95360.41;5122240;27;20027;-83
2023/07/09 11:19:21;;;;;;;4.75;2.55;;;;;;;30.74;27.20;95360.47;5106147;28;20031;-81
2023/07/09 11:22:03;;;;;;;3.90;2.47;;;;;;;30.81;27.01;95359.75;5114226;28;20015;-83
2023/07/09 11:24:35;;;;;;;5.90;2.53;;;;;;;30.88;27.27;95370.34;5106572;28;20035;-83
2023/07/09 11:27:01;;;;;;;6.35;2.90;;;;;;;30.90;27.05;95367.69;5105365;28;20083;-82
2023/07/09 11:29:28;;;;;;;4.60;3.10;;;;;;;30.98;26.57;95361.31;5104677;28;20028;-83
2023/07/09 11:31:55;;;;;;;4.70;3.10;;;;;;;31.05;26.67;95352.81;5122122;28;20481;-82
2023/07/09 11:34:27;;;;;;;6.75;2.95;;;;;;;31.04;27.63;95359.03;5106228;28;20024;-82
2023/07/09 11:36:56;;;;;;;3.40;2.63;;;;;;;31.15;27.19;95353.78;5106757;28;20035;-82
2023/07/09 11:39:38;;;;;;;3.88;2.83;;;;;;;31.22;26.73;95349.44;5106019;28;20023;-81